createdAt,value
2022-07-28T00:01:13.711Z,3.00
2022-07-28T00:03:41.567Z,2.33
2022-07-28T00:06:09.829Z,1.67
2022-07-28T00:08:38.978Z,2.00
2022-07-28T00:11:06.805Z,1.00
2022-07-28T00:13:34.647Z,2.00
2022-07-28T00:16:02.857Z,2.00
2022-07-28T00:18:31.645Z,2.00
2022-07-28T00:20:59.445Z,3.00
2022-07-28T00:23:37.622Z,2.33
2022-07-28T00:26:09.218Z,3.00
2022-07-28T00:28:37.465Z,2.00
2022-07-28T00:31:06.995Z,1.00
2022-07-28T00:33:36.612Z,2.00
2022-07-28T00:36:04.784Z,3.00
2022-07-28T00:38:35.224Z,1.33
2022-07-28T00:41:12.647Z,2.00
2022-07-28T00:43:45.993Z,2.00
2022-07-28T00:46:17.285Z,2.00
2022-07-28T00:48:48.039Z,1.00
2022-07-28T00:51:17.416Z,1.00
2022-07-28T00:53:46.050Z,2.00
2022-07-28T00:56:14.776Z,3.00
2022-07-28T00:58:42.914Z,2.00
2022-07-28T01:01:11.991Z,3.00
2022-07-28T01:03:42.069Z,3.00
2022-07-28T01:06:18.953Z,2.00
2022-07-28T01:09:31.909Z,2.00
2022-07-28T01:12:18.475Z,2.00
2022-07-28T01:14:51.456Z,2.50
2022-07-28T01:17:47.171Z,2.00
2022-07-28T01:20:29.003Z,2.00
2022-07-28T01:23:19.902Z,1.00
2022-07-28T01:26:25.758Z,1.67
2022-07-28T01:29:02.221Z,2.00
2022-07-28T01:31:41.258Z,2.00
2022-07-28T01:34:13.661Z,1.00
2022-07-28T01:36:57.062Z,1.67
2022-07-28T01:39:32.265Z,2.00
2022-07-28T01:42:02.920Z,1.00
2022-07-28T01:44:35.234Z,2.00
2022-07-28T01:47:07.547Z,2.00
2022-07-28T01:49:37.066Z,2.00
2022-07-28T01:52:08.589Z,2.00
2022-07-28T01:54:42.538Z,2.00
2022-07-28T01:57:14.655Z,1.00
2022-07-28T01:59:43.870Z,2.00
2022-07-28T02:02:14.242Z,1.00
2022-07-28T02:04:45.117Z,2.00
2022-07-28T02:07:14.473Z,2.00
2022-07-28T02:09:46.153Z,1.33
2022-07-28T02:12:17.115Z,1.00
2022-07-28T02:14:49.236Z,1.00
2022-07-28T02:17:20.636Z,1.00
2022-07-28T02:19:49.157Z,2.00
2022-07-28T02:22:18.074Z,2.00
2022-07-28T02:24:47.303Z,1.00
2022-07-28T02:27:33.060Z,2.33
2022-07-28T02:30:14.871Z,2.00
2022-07-28T02:32:45.416Z,1.00
2022-07-28T02:35:31.965Z,2.33
2022-07-28T02:38:15.192Z,1.50
2022-07-28T02:40:45.110Z,2.00
2022-07-28T02:43:20.877Z,2.00
2022-07-28T02:45:53.168Z,2.00
2022-07-28T02:48:25.996Z,2.00
2022-07-28T02:50:57.514Z,1.00
2022-07-28T02:53:27.493Z,2.00
2022-07-28T02:55:56.793Z,3.00
2022-07-28T02:58:27.481Z,2.00
2022-07-28T03:00:56.751Z,2.00
2022-07-28T03:03:25.153Z,3.00
2022-07-28T03:05:53.507Z,2.00
2022-07-28T03:08:21.524Z,2.33
2022-07-28T03:10:49.339Z,1.67
2022-07-28T03:13:17.103Z,3.00
2022-07-28T03:15:44.896Z,1.00
2022-07-28T03:18:12.712Z,2.00
2022-07-28T03:20:40.482Z,2.00
2022-07-28T03:23:10.048Z,2.00
2022-07-28T03:25:48.817Z,2.00
2022-07-28T03:28:21.370Z,2.00
2022-07-28T03:30:58.650Z,3.00
2022-07-28T03:33:27.341Z,2.00
2022-07-28T03:35:58.511Z,1.67
2022-07-28T03:38:33.184Z,2.00
2022-07-28T03:41:02.879Z,2.67
2022-07-28T03:43:31.695Z,2.67
2022-07-28T03:45:59.466Z,1.00
2022-07-28T03:48:32.243Z,1.00
2022-07-28T03:51:00.417Z,2.00
2022-07-28T03:53:29.833Z,2.00
2022-07-28T03:55:57.827Z,0.67
2022-07-28T03:58:28.945Z,1.00
2022-07-28T04:00:58.455Z,2.67
2022-07-28T04:03:36.680Z,1.00
2022-07-28T04:06:13.089Z,2.00
2022-07-28T04:08:41.857Z,2.00
2022-07-28T04:11:09.730Z,3.00
2022-07-28T04:13:38.674Z,1.00
2022-07-28T04:16:07.696Z,2.00
2022-07-28T04:18:35.688Z,2.00
2022-07-28T04:21:04.132Z,2.00
2022-07-28T04:23:32.432Z,2.00
2022-07-28T04:26:00.132Z,2.00
2022-07-28T04:28:27.903Z,2.00
2022-07-28T04:30:55.900Z,2.00
2022-07-28T04:33:24.861Z,2.33
2022-07-28T04:35:53.037Z,3.00
2022-07-28T04:38:20.915Z,2.00
2022-07-28T04:40:49.794Z,3.00
2022-07-28T04:43:18.075Z,2.00
2022-07-28T04:45:54.212Z,2.00
2022-07-28T04:48:23.804Z,2.00
2022-07-28T04:50:53.157Z,1.67
2022-07-28T04:53:22.667Z,2.00
2022-07-28T04:55:53.396Z,2.00
2022-07-28T04:58:23.201Z,2.00
2022-07-28T05:00:51.851Z,2.67
2022-07-28T05:03:20.820Z,1.00
2022-07-28T05:05:54.316Z,1.00
2022-07-28T05:08:25.666Z,3.50
2022-07-28T05:10:55.947Z,2.00
2022-07-28T05:13:25.989Z,1.33
2022-07-28T05:15:55.764Z,3.00
2022-07-28T05:18:23.517Z,3.00
2022-07-28T05:20:51.289Z,2.00
2022-07-28T05:23:19.215Z,1.67
2022-07-28T05:25:46.978Z,2.50
2022-07-28T05:28:14.811Z,2.67
2022-07-28T05:30:45.373Z,3.00
2022-07-28T05:33:15.793Z,2.33
2022-07-28T05:35:50.665Z,2.00
2022-07-28T05:38:18.745Z,2.00
2022-07-28T05:40:48.298Z,2.33
2022-07-28T05:43:16.716Z,2.00
2022-07-28T05:45:45.143Z,2.00
2022-07-28T05:48:13.267Z,3.00
2022-07-28T05:50:41.148Z,1.00
2022-07-28T05:53:08.968Z,1.67
2022-07-28T05:55:36.726Z,1.00
2022-07-28T05:58:24.468Z,1.50
2022-07-28T06:00:52.369Z,0.33
2022-07-28T06:03:20.201Z,2.33
2022-07-28T06:06:13.832Z,2.00
2022-07-28T06:08:36.345Z,2.00
2022-07-28T06:11:11.703Z,2.33
2022-07-28T06:13:40.086Z,2.00
2022-07-28T06:16:12.948Z,1.00
2022-07-28T06:18:43.862Z,2.00
2022-07-28T06:21:11.639Z,1.00
2022-07-28T06:23:39.412Z,2.00
2022-07-28T06:26:07.250Z,2.00
2022-07-28T06:28:35.686Z,2.00
2022-07-28T06:31:03.365Z,1.33
2022-07-28T06:33:31.074Z,1.00
2022-07-28T06:35:58.862Z,2.00
2022-07-28T06:38:26.680Z,1.00
2022-07-28T06:40:54.537Z,2.00
2022-07-28T06:43:22.546Z,1.33
2022-07-28T06:45:51.333Z,1.00
2022-07-28T06:48:20.183Z,1.00
2022-07-28T06:50:47.971Z,1.33
2022-07-28T06:53:15.723Z,1.33
2022-07-28T06:55:43.459Z,1.00
2022-07-28T06:58:17.775Z,1.00
2022-07-28T07:00:45.571Z,1.00
2022-07-28T07:03:13.249Z,0.67
2022-07-28T07:05:41.059Z,1.00
2022-07-28T07:08:08.875Z,2.00
2022-07-28T07:10:36.656Z,0.00
2022-07-28T07:13:04.891Z,0.00
2022-07-28T07:15:34.955Z,1.00
2022-07-28T07:18:02.939Z,0.00
2022-07-28T07:20:30.759Z,1.00
2022-07-28T07:22:58.581Z,0.00
2022-07-28T07:25:26.323Z,0.00
2022-07-28T07:27:54.207Z,0.00
2022-07-28T07:30:21.949Z,0.00
2022-07-28T07:32:49.760Z,1.00
2022-07-28T07:35:17.714Z,0.00
2022-07-28T07:37:45.419Z,0.00
2022-07-28T07:40:13.173Z,0.00
2022-07-28T07:42:40.869Z,0.00
2022-07-28T07:45:09.093Z,0.00
2022-07-28T07:47:37.020Z,0.00
2022-07-28T07:50:05.259Z,0.00
2022-07-28T07:52:32.949Z,0.00
2022-07-28T07:55:01.130Z,0.00
2022-07-28T07:57:29.875Z,0.00
2022-07-28T07:59:57.720Z,0.50
2022-07-28T08:02:25.517Z,0.00
2022-07-28T08:04:53.552Z,0.00
2022-07-28T08:07:22.118Z,0.00
2022-07-28T08:09:50.224Z,0.00
2022-07-28T08:12:18.095Z,0.00
2022-07-28T08:14:54.535Z,0.00
2022-07-28T08:17:25.940Z,0.00
2022-07-28T08:19:55.101Z,0.00
2022-07-28T08:22:23.477Z,0.00
2022-07-28T08:24:51.707Z,0.00
2022-07-28T08:27:19.507Z,0.00
2022-07-28T08:29:47.413Z,0.00
2022-07-28T08:32:15.403Z,0.50
2022-07-28T08:34:43.468Z,0.00
2022-07-28T08:37:11.210Z,0.00
2022-07-28T08:39:39.037Z,0.00
2022-07-28T08:42:12.227Z,0.00
2022-07-28T08:44:50.619Z,0.00
2022-07-28T08:47:20.181Z,0.00
2022-07-28T08:49:49.533Z,0.00
2022-07-28T08:52:21.304Z,0.00
2022-07-28T08:54:50.947Z,0.00
2022-07-28T08:57:42.634Z,0.00
2022-07-28T09:00:12.122Z,0.00
2022-07-28T09:02:46.660Z,0.00
2022-07-28T09:05:21.487Z,0.00
2022-07-28T09:07:54.723Z,0.00
2022-07-28T09:10:23.734Z,0.00
2022-07-28T09:12:51.740Z,1.00
2022-07-28T09:15:19.657Z,0.00
2022-07-28T09:17:47.388Z,0.00
2022-07-28T09:20:17.114Z,0.00
2022-07-28T09:22:59.563Z,0.00
2022-07-28T09:25:28.461Z,1.00
2022-07-28T09:27:59.349Z,0.00
2022-07-28T09:30:29.253Z,0.00
2022-07-28T09:33:43.107Z,0.50
2022-07-28T09:36:18.296Z,0.00
2022-07-28T09:38:47.055Z,0.00
2022-07-28T09:41:18.918Z,0.00
2022-07-28T09:43:49.852Z,1.00
2022-07-28T09:46:24.552Z,0.33
2022-07-28T09:48:55.393Z,0.00
2022-07-28T09:51:31.200Z,0.50
2022-07-28T09:54:16.281Z,1.33
2022-07-28T09:56:45.410Z,1.00
2022-07-28T09:59:14.912Z,1.00
2022-07-28T10:01:56.539Z,1.00
2022-07-28T10:04:41.203Z,0.00
2022-07-28T10:07:10.417Z,1.00
2022-07-28T10:09:39.229Z,1.00
2022-07-28T10:12:36.872Z,0.00
2022-07-28T10:15:35.995Z,0.67
2022-07-28T10:18:05.179Z,0.50
2022-07-28T10:20:34.191Z,1.67
2022-07-28T10:23:05.608Z,2.00
2022-07-28T10:25:34.929Z,1.50
2022-07-28T10:28:03.913Z,1.33
2022-07-28T10:30:39.526Z,1.00
2022-07-28T10:33:13.987Z,2.00
2022-07-28T10:35:54.342Z,1.00
2022-07-28T10:38:27.986Z,0.67
2022-07-28T10:40:59.348Z,0.00
2022-07-28T10:43:29.025Z,0.67
2022-07-28T10:46:09.787Z,1.67
2022-07-28T10:48:38.986Z,1.33
2022-07-28T10:51:07.545Z,1.00
2022-07-28T10:53:47.162Z,2.00
2022-07-28T10:56:27.995Z,1.00
2022-07-28T10:59:33.112Z,1.00
2022-07-28T11:02:01.002Z,1.50
2022-07-28T11:04:40.923Z,2.67
2022-07-28T11:07:15.940Z,1.00
2022-07-28T11:09:45.622Z,1.00
2022-07-28T11:12:15.946Z,3.00
2022-07-28T11:14:45.488Z,2.50
2022-07-28T11:17:15.566Z,2.00
2022-07-28T11:19:55.668Z,1.33
2022-07-28T11:22:33.941Z,1.00
2022-07-28T11:25:19.020Z,2.67
2022-07-28T11:27:54.502Z,2.00
2022-07-28T11:30:25.539Z,2.00
2022-07-28T11:32:56.160Z,3.00
2022-07-28T11:35:28.790Z,4.00
2022-07-28T11:38:02.837Z,2.00
2022-07-28T11:40:51.851Z,2.00
2022-07-28T11:43:36.279Z,4.00
2022-07-28T11:46:11.419Z,3.00
2022-07-28T11:48:42.239Z,1.33
2022-07-28T11:51:11.889Z,3.00
2022-07-28T11:53:49.719Z,3.50
2022-07-28T11:56:25.942Z,3.00
2022-07-28T11:58:58.592Z,3.50
2022-07-28T12:01:27.272Z,1.67
2022-07-28T12:04:01.103Z,1.33
2022-07-28T12:06:37.043Z,1.50
2022-07-28T12:09:06.915Z,2.00
2022-07-28T12:11:35.867Z,2.33
2022-07-28T12:14:08.841Z,3.00
2022-07-28T12:16:39.696Z,2.33
2022-07-28T12:19:09.067Z,3.00
2022-07-28T12:21:55.127Z,3.00
2022-07-28T12:24:31.878Z,2.00
2022-07-28T12:27:14.890Z,2.00
2022-07-28T12:29:43.702Z,3.00
2022-07-28T12:32:12.209Z,3.00
2022-07-28T12:34:40.674Z,3.00
2022-07-28T12:37:12.599Z,3.00
2022-07-28T12:39:42.701Z,3.00
2022-07-28T12:42:13.184Z,2.00
2022-07-28T12:44:51.325Z,1.67
2022-07-28T12:47:26.350Z,3.00
2022-07-28T12:50:14.285Z,2.00
2022-07-28T12:52:45.691Z,4.00
2022-07-28T12:55:28.065Z,3.00
2022-07-28T12:57:56.230Z,4.00
2022-07-28T13:00:31.278Z,4.00
2022-07-28T13:03:01.306Z,2.67
2022-07-28T13:05:55.403Z,3.33
2022-07-28T13:08:27.554Z,2.33
2022-07-28T13:10:57.446Z,2.33
2022-07-28T13:13:27.807Z,4.00
2022-07-28T13:16:15.839Z,4.00
2022-07-28T13:18:50.391Z,5.00
2022-07-28T13:21:57.088Z,4.00
2022-07-28T13:24:27.758Z,4.00
2022-07-28T13:26:56.716Z,4.00
2022-07-28T13:29:25.865Z,2.00
2022-07-28T13:31:54.829Z,1.33
2022-07-28T13:34:23.447Z,3.00
2022-07-28T13:36:52.503Z,3.00
2022-07-28T13:39:20.443Z,2.33
2022-07-28T13:41:57.941Z,2.67
2022-07-28T13:44:30.795Z,3.00
2022-07-28T13:46:59.951Z,3.00
2022-07-28T13:49:32.025Z,4.00
2022-07-28T13:52:02.390Z,3.00
2022-07-28T13:54:30.241Z,3.50
2022-07-28T13:57:13.407Z,3.00
2022-07-28T13:59:44.037Z,3.00
2022-07-28T14:02:15.328Z,4.00
2022-07-28T14:04:48.859Z,3.00
2022-07-28T14:07:20.562Z,2.50
2022-07-28T14:09:50.754Z,4.00
2022-07-28T14:12:18.663Z,4.00
2022-07-28T14:14:48.169Z,4.00
2022-07-28T14:20:11.309Z,3.33
2022-07-28T14:22:39.070Z,4.00
2022-07-28T14:25:07.541Z,4.00
2022-07-28T14:27:35.426Z,3.00
2022-07-28T14:30:04.413Z,4.00
2022-07-28T14:32:32.966Z,3.00
2022-07-28T14:35:02.318Z,3.67
2022-07-28T14:37:47.181Z,2.67
2022-07-28T14:40:18.129Z,3.00
2022-07-28T14:42:45.870Z,5.67
2022-07-28T14:45:14.306Z,7.00
2022-07-28T14:47:44.184Z,19.33
2022-07-28T14:50:13.946Z,11.33
2022-07-28T14:52:45.039Z,8.00
2022-07-28T14:55:13.244Z,6.00
2022-07-28T14:57:48.442Z,4.00
2022-07-28T15:00:21.191Z,6.00
2022-07-28T15:02:51.630Z,3.00
2022-07-28T15:05:20.440Z,3.33
2022-07-28T15:08:08.594Z,5.00
2022-07-28T15:10:36.465Z,3.00
2022-07-28T15:13:04.235Z,5.00
2022-07-28T15:15:32.040Z,2.00
2022-07-28T15:17:59.773Z,4.00
2022-07-28T15:20:27.513Z,5.00
2022-07-28T15:22:55.793Z,3.33
2022-07-28T15:25:23.761Z,4.00
2022-07-28T15:27:51.575Z,7.00
2022-07-28T15:30:19.502Z,9.33
2022-07-28T15:32:56.101Z,7.33
2022-07-28T15:35:26.177Z,7.00
2022-07-28T15:37:54.777Z,6.33
2022-07-28T15:40:22.822Z,7.00
2022-07-28T15:42:50.674Z,6.00
2022-07-28T15:45:18.577Z,6.00
2022-07-28T15:47:46.280Z,6.00
2022-07-28T15:50:14.257Z,8.67
2022-07-28T15:52:43.120Z,18.33
2022-07-28T15:55:10.804Z,11.00
2022-07-28T15:57:38.908Z,10.50
2022-07-28T16:00:09.188Z,9.33
2022-07-28T16:02:37.052Z,6.00
2022-07-28T16:05:05.616Z,7.00
2022-07-28T16:07:35.185Z,6.00
2022-07-28T16:10:04.014Z,5.00
2022-07-28T16:12:31.905Z,4.33
2022-07-28T16:14:59.908Z,3.67
2022-07-28T16:17:27.675Z,4.33
2022-07-28T16:19:58.818Z,6.00
2022-07-28T16:22:30.337Z,9.00
2022-07-28T16:24:58.071Z,5.00
2022-07-28T16:27:25.884Z,6.00
2022-07-28T16:29:53.697Z,4.00
2022-07-28T16:32:21.523Z,2.67
2022-07-28T16:34:49.372Z,5.00
2022-07-28T16:37:19.683Z,4.00
2022-07-28T16:39:48.583Z,3.33
2022-07-28T16:42:16.943Z,3.33
2022-07-28T16:44:44.721Z,4.00
2022-07-28T16:47:12.549Z,4.00
2022-07-28T16:49:45.289Z,5.00
2022-07-28T16:52:14.935Z,4.00
2022-07-28T16:54:42.929Z,3.00
2022-07-28T16:57:10.840Z,3.00
2022-07-28T16:59:47.980Z,3.33
2022-07-28T17:02:19.086Z,3.50
2022-07-28T17:04:47.254Z,2.00
2022-07-28T17:07:15.055Z,3.67
2022-07-28T17:09:42.865Z,2.33
2022-07-28T17:12:10.835Z,2.00
2022-07-28T17:14:38.522Z,3.00
2022-07-28T17:17:06.621Z,2.00
2022-07-28T17:19:35.208Z,2.33
2022-07-28T17:22:06.840Z,3.00
2022-07-28T17:24:34.664Z,3.67
2022-07-28T17:27:36.848Z,3.00
2022-07-28T17:29:50.117Z,3.00
2022-07-28T17:32:18.853Z,4.00
2022-07-28T17:34:47.686Z,2.00
2022-07-28T17:37:15.605Z,2.33
2022-07-28T17:39:43.641Z,1.00
2022-07-28T17:42:11.505Z,2.67
2022-07-28T17:44:39.319Z,1.50
2022-07-28T17:47:07.224Z,2.33
2022-07-28T17:49:36.664Z,2.00
2022-07-28T17:52:06.058Z,3.00
2022-07-28T17:54:52.833Z,4.00
2022-07-28T17:57:22.390Z,3.00
2022-07-28T17:59:52.111Z,3.00
2022-07-28T18:02:20.186Z,5.67
2022-07-28T18:04:49.491Z,4.00
2022-07-28T18:07:17.297Z,4.00
2022-07-28T18:09:46.131Z,7.00
2022-07-28T18:12:13.953Z,5.50
2022-07-28T18:14:41.726Z,8.00
2022-07-28T18:17:09.495Z,6.00
2022-07-28T18:19:40.863Z,5.00
2022-07-28T18:22:11.333Z,6.00
2022-07-28T18:24:39.060Z,5.00
2022-07-28T18:27:06.932Z,7.00
2022-07-28T18:29:38.619Z,9.00
2022-07-28T18:32:09.884Z,7.00
2022-07-28T18:34:40.477Z,6.00
2022-07-28T18:37:08.290Z,4.33
2022-07-28T18:39:36.067Z,3.00
2022-07-28T18:42:04.057Z,6.00
2022-07-28T18:44:32.079Z,7.00
2022-07-28T18:47:01.445Z,9.00
2022-07-28T18:49:29.628Z,5.00
2022-07-28T18:52:06.864Z,4.00
2022-07-28T18:54:34.645Z,3.00
2022-07-28T18:57:02.417Z,3.00
2022-07-28T18:59:32.723Z,3.00
2022-07-28T19:02:00.561Z,3.00
2022-07-28T19:04:28.526Z,4.00
2022-07-28T19:06:56.456Z,3.67
2022-07-28T19:09:24.449Z,5.00
2022-07-28T19:11:52.183Z,6.00
2022-07-28T19:14:20.364Z,4.00
2022-07-28T19:16:48.756Z,4.33
2022-07-28T19:19:16.570Z,3.67
2022-07-28T19:21:44.641Z,1.00
2022-07-28T19:24:14.334Z,2.50
2022-07-28T19:26:44.478Z,3.00
2022-07-28T19:29:13.034Z,4.00
2022-07-28T19:31:41.597Z,3.00
2022-07-28T19:34:10.101Z,3.00
2022-07-28T19:36:40.137Z,3.00
2022-07-28T19:39:08.669Z,2.00
2022-07-28T19:41:36.435Z,4.00
2022-07-28T19:44:04.487Z,3.00
2022-07-28T19:46:32.523Z,4.00
2022-07-28T19:49:00.536Z,4.00
2022-07-28T19:51:28.777Z,4.00
2022-07-28T19:53:58.622Z,4.00
2022-07-28T19:56:31.469Z,4.00
2022-07-28T19:59:00.383Z,4.00
2022-07-28T20:01:28.553Z,5.67
2022-07-28T20:04:03.531Z,4.50
2022-07-28T20:06:33.354Z,4.67
2022-07-28T20:09:02.077Z,3.67
2022-07-28T20:11:30.230Z,5.00
2022-07-28T20:13:57.911Z,7.00
2022-07-28T20:16:26.203Z,5.00
2022-07-28T20:18:54.236Z,6.00
2022-07-28T20:21:24.057Z,4.67
2022-07-28T20:23:57.191Z,4.00
2022-07-28T20:26:26.803Z,6.00
2022-07-28T20:28:58.543Z,5.00
2022-07-28T20:31:26.540Z,5.00
2022-07-28T20:33:54.337Z,5.00
2022-07-28T20:36:25.056Z,6.00
2022-07-28T20:38:57.466Z,6.00
2022-07-28T20:41:25.849Z,5.00
2022-07-28T20:44:18.324Z,3.00
2022-07-28T20:46:41.970Z,5.00
2022-07-28T20:49:09.769Z,3.50
2022-07-28T20:51:37.603Z,4.00
2022-07-28T20:54:05.666Z,3.67
2022-07-28T20:56:33.443Z,6.00
2022-07-28T20:59:07.014Z,5.00
2022-07-28T21:01:35.007Z,5.67
2022-07-28T21:04:02.896Z,6.00
2022-07-28T21:06:31.824Z,6.00
2022-07-28T21:09:01.991Z,6.00
2022-07-28T21:11:35.059Z,6.00
2022-07-28T21:14:05.622Z,5.33
2022-07-28T21:16:34.471Z,4.00
2022-07-28T21:19:02.298Z,3.33
2022-07-28T21:21:30.431Z,3.33
2022-07-28T21:23:58.262Z,4.00
2022-07-28T21:26:25.970Z,3.67
2022-07-28T21:29:12.653Z,4.00
2022-07-28T21:32:05.621Z,4.00
2022-07-28T21:34:31.238Z,3.00
2022-07-28T21:37:01.172Z,3.00
2022-07-28T21:39:30.061Z,4.00
2022-07-28T21:41:58.430Z,5.00
2022-07-28T21:44:26.263Z,4.00
2022-07-28T21:46:54.051Z,4.50
2022-07-28T21:49:22.010Z,4.00
2022-07-28T21:51:49.893Z,4.00
2022-07-28T21:54:17.966Z,3.00
2022-07-28T21:56:47.816Z,4.00
2022-07-28T21:59:15.590Z,4.00
2022-07-28T22:01:43.460Z,4.00
2022-07-28T22:04:11.378Z,4.67
2022-07-28T22:06:39.141Z,3.00
2022-07-28T22:09:07.072Z,4.00
2022-07-28T22:11:34.918Z,4.00
2022-07-28T22:14:02.748Z,4.00
2022-07-28T22:16:30.569Z,4.00
2022-07-28T22:18:58.569Z,3.67
2022-07-28T22:21:26.366Z,4.00
2022-07-28T22:23:54.222Z,3.00
2022-07-28T22:26:22.164Z,3.00
2022-07-28T22:28:49.970Z,5.00
2022-07-28T22:31:17.812Z,5.00
2022-07-28T22:33:45.740Z,5.00
2022-07-28T22:36:14.055Z,4.00
2022-07-28T22:38:41.823Z,5.00
2022-07-28T22:41:09.907Z,4.00
2022-07-28T22:43:38.151Z,2.67
2022-07-28T22:46:06.097Z,5.00
2022-07-28T22:48:33.889Z,4.00
2022-07-28T22:51:01.823Z,3.33
2022-07-28T22:53:29.584Z,3.00
2022-07-28T22:55:57.437Z,4.00
2022-07-28T22:58:26.294Z,5.33
2022-07-28T23:00:54.424Z,3.33
2022-07-28T23:03:22.737Z,3.00
2022-07-28T23:05:57.219Z,4.00
2022-07-28T23:08:27.161Z,3.00
2022-07-28T23:10:55.489Z,4.00
2022-07-28T23:13:23.286Z,3.00
2022-07-28T23:15:51.078Z,4.33
2022-07-28T23:18:18.930Z,4.67
2022-07-28T23:20:46.695Z,4.00
2022-07-28T23:23:18.280Z,4.00
2022-07-28T23:25:46.299Z,3.33
2022-07-28T23:28:14.148Z,5.00
2022-07-28T23:30:41.925Z,6.00
2022-07-28T23:33:09.838Z,5.00
2022-07-28T23:35:57.902Z,3.00
2022-07-28T23:38:25.678Z,4.33
2022-07-28T23:40:53.519Z,5.00
2022-07-28T23:43:21.301Z,4.00
2022-07-28T23:45:49.046Z,4.50
2022-07-28T23:48:16.842Z,5.00
2022-07-28T23:50:44.610Z,5.33
2022-07-28T23:53:12.568Z,5.00
2022-07-28T23:55:40.472Z,5.67
2022-07-28T23:58:08.181Z,4.00
